METAR Data
IDs: Format: Raw Decoded Include TAF

Data at: 1732 UTC 03 Jul 2020

KTLH 031653Z 23005KT 10SM TS BKN035CB 32/22 A2993 RMK AO2 LTG DSNT SW TSB48 SLP133 OCNL LTGIC SW TS SW MOV STNRY TCU ALQDS T03220222